Caribou, Maine
Current Conditions -  °F | °C
As of 1:10 PM on Monday 24 Nov 2014 (Local Time) from KCAR Reporting Station
Light Rain Light Rain  
Wind Chill: 38°   Ceiling: 700
Heat Index: 46°   Visibility: 3mi
Dew Point: 44°   Wind: 20mph
Humidity: 93%   Direction: 160°SSE
Pressure: 29.63"   Gusts: 29mph
Location:  46.86°N, 68.01°W
Report Text: KCAR 241810Z AUTO 16017G25KT 3SM -RA BR OVC007 08/07 A2963 RMK AO2 CIG 006V010 P0003 T00780067
Loading
Personal Weather Stations






























Interactive Weather Map New forecast layout! Learn more

10-Day Weather Forecast

Advertisements
Track Severe Weather on mobile